Time;durP1;ratioP1;P1;durP2;ratioP2;P2;SDS_P1;SDS_P2;PMS_P1;PMS_P2;Temp;Humidity;BMP_temperature;BMP_pressure;BME280_temperature;BME280_humidity;BME280_pressure;Samples;Min_cycle;Max_cycle;Signal;HPM_P1;HPM_P2
2022/05/23 00:01:23;;;;;;;4.17;3.43;;;15.70;99.90;;;;;;5069716;28;20488;-66
2022/05/23 00:03:52;;;;;;;4.20;3.07;;;15.60;99.90;;;;;;5070513;28;20525;-66
2022/05/23 00:06:21;;;;;;;4.47;3.53;;;15.70;99.90;;;;;;5070215;28;20435;-66
2022/05/23 00:08:50;;;;;;;3.63;2.90;;;15.70;99.90;;;;;;5070204;28;20475;-65
2022/05/23 00:11:19;;;;;;;3.53;3.13;;;15.80;99.90;;;;;;5070358;28;20451;-66
2022/05/23 00:13:46;;;;;;;3.73;3.20;;;15.70;99.90;;;;;;5070914;28;20811;-66
2022/05/23 00:16:19;;;;;;;3.90;3.23;;;15.70;99.90;;;;;;5070739;28;20443;-66
2022/05/23 00:18:47;;;;;;;3.30;3.00;;;15.70;99.90;;;;;;5070171;28;20434;-66
2022/05/23 00:21:16;;;;;;;5.20;3.67;;;15.60;99.90;;;;;;5070909;28;20449;-67
2022/05/23 00:23:42;;;;;;;4.37;3.13;;;15.60;99.90;;;;;;5073568;28;20443;-67
2022/05/23 00:26:11;;;;;;;4.30;3.70;;;15.50;99.90;;;;;;5073365;28;20442;-67
2022/05/23 00:28:38;;;;;;;4.43;3.60;;;15.40;99.90;;;;;;5073365;28;20482;-66
2022/05/23 00:31:04;;;;;;;3.73;2.97;;;15.40;99.90;;;;;;5073234;28;20453;-67
2022/05/23 00:36:17;;;;;;;4.23;3.20;;;15.40;99.90;;;;;;5073514;28;20417;-66
2022/05/23 00:38:44;;;;;;;6.40;3.77;;;15.40;99.90;;;;;;5073384;28;20445;-67
2022/05/23 00:44:09;;;;;;;5.33;3.60;;;15.40;99.90;;;;;;5074109;28;20946;-67
2022/05/23 00:46:48;;;;;;;5.10;3.50;;;15.20;99.90;;;;;;5073158;28;20435;-67
2022/05/23 00:49:17;;;;;;;4.30;3.53;;;15.20;99.90;;;;;;5072931;28;20485;-66
2022/05/23 00:51:46;;;;;;;4.43;4.03;;;15.10;99.90;;;;;;5073026;28;20632;-66
2022/05/23 00:54:13;;;;;;;4.27;3.87;;;15.00;99.90;;;;;;5073038;28;20534;-66
2022/05/23 00:56:44;;;;;;;6.30;4.03;;;14.90;99.90;;;;;;5073002;28;20445;-67
2022/05/23 00:59:13;;;;;;;4.30;3.63;;;14.90;99.90;;;;;;5072777;28;20463;-67
2022/05/23 01:01:40;;;;;;;5.00;3.73;;;14.90;99.90;;;;;;5072175;28;20481;-67
2022/05/23 01:04:07;;;;;;;5.30;3.77;;;15.00;99.90;;;;;;5072960;28;20447;-66
2022/05/23 01:06:35;;;;;;;4.87;3.77;;;15.00;99.90;;;;;;5072748;28;20810;-66
2022/05/23 01:09:04;;;;;;;5.33;4.10;;;15.00;99.90;;;;;;5072581;28;20614;-67
2022/05/23 01:11:31;;;;;;;4.63;4.23;;;15.00;99.90;;;;;;5072511;28;20443;-67
2022/05/23 01:13:58;;;;;;;4.80;3.83;;;14.90;99.90;;;;;;5072472;28;20832;-67
2022/05/23 01:16:26;;;;;;;4.57;3.33;;;14.80;99.90;;;;;;5073160;28;20462;-67
2022/05/23 01:18:53;;;;;;;4.33;3.40;;;14.70;99.90;;;;;;5073209;28;20450;-66
2022/05/23 01:21:29;;;;;;;8.40;4.20;;;14.60;99.90;;;;;;5073761;28;20525;-67
2022/05/23 01:24:04;;;;;;;6.63;4.27;;;14.60;99.90;;;;;;5075569;28;20439;-67
2022/05/23 01:26:34;;;;;;;4.00;3.60;;;14.60;99.90;;;;;;5072651;28;20434;-67
2022/05/23 01:29:01;;;;;;;3.83;3.27;;;14.60;99.90;;;;;;5072724;28;20474;-67
2022/05/23 01:31:28;;;;;;;5.10;4.27;;;14.60;99.90;;;;;;5072043;28;21042;-67
2022/05/23 01:33:55;;;;;;;4.60;3.20;;;14.70;99.90;;;;;;5071958;28;20764;-67
2022/05/23 01:36:22;;;;;;;5.63;3.90;;;14.70;99.90;;;;;;5072619;28;20450;-67
2022/05/23 01:38:49;;;;;;;4.30;3.90;;;14.60;99.90;;;;;;5072398;28;20491;-67
2022/05/23 01:41:15;;;;;;;5.27;4.77;;;14.60;99.90;;;;;;5071967;28;20451;-65
2022/05/23 01:43:43;;;;;;;4.67;4.03;;;14.40;99.90;;;;;;5072743;28;20474;-67
2022/05/23 01:46:10;;;;;;;4.70;3.77;;;14.40;99.90;;;;;;5072605;28;20450;-67
2022/05/23 01:48:37;;;;;;;3.83;3.43;;;14.30;99.90;;;;;;5072443;28;20491;-66
2022/05/23 01:51:04;;;;;;;5.70;3.73;;;14.20;99.90;;;;;;5072336;28;20431;-66
2022/05/23 01:53:31;;;;;;;5.93;4.20;;;14.20;99.90;;;;;;5072215;28;20443;-66
2022/05/23 01:56:02;;;;;;;4.80;4.40;;;14.20;99.90;;;;;;5072517;28;20455;-66
2022/05/23 02:01:15;;;;;;;5.00;4.30;;;14.20;99.90;;;;;;5072041;28;20434;-66
2022/05/23 02:03:42;;;;;;;4.90;4.40;;;14.30;99.90;;;;;;5071950;28;20438;-66
2022/05/23 02:06:09;;;;;;;4.97;4.40;;;14.20;99.90;;;;;;5072269;28;20505;-66
2022/05/23 02:08:36;;;;;;;4.90;4.20;;;14.20;99.90;;;;;;5072117;28;20863;-66
2022/05/23 02:11:05;;;;;;;4.50;3.93;;;14.10;99.90;;;;;;5071656;28;20450;-67
2022/05/23 02:13:33;;;;;;;5.50;4.00;;;14.00;99.90;;;;;;5072077;28;20450;-66
2022/05/23 02:16:00;;;;;;;4.83;3.87;;;13.90;99.90;;;;;;5072266;28;20449;-66
2022/05/23 02:18:29;;;;;;;5.03;3.43;;;13.90;99.90;;;;;;5071736;28;20443;-66
2022/05/23 02:20:56;;;;;;;5.40;4.77;;;14.00;99.90;;;;;;5071933;28;20439;-66
2022/05/23 02:23:23;;;;;;;5.33;4.50;;;13.90;99.90;;;;;;5071752;28;20443;-66
2022/05/23 02:25:49;;;;;;;5.00;4.60;;;14.00;99.90;;;;;;5071910;28;20470;-66
2022/05/23 02:28:16;;;;;;;5.30;4.80;;;13.90;99.90;;;;;;5071209;28;20921;-66
2022/05/23 02:30:43;;;;;;;4.77;3.97;;;14.00;99.90;;;;;;5070999;28;20483;-66
2022/05/23 02:33:10;;;;;;;6.10;4.27;;;13.90;99.90;;;;;;5071126;28;20952;-66
2022/05/23 02:35:39;;;;;;;5.47;4.97;;;13.90;99.90;;;;;;5071001;28;20451;-66
2022/05/23 02:38:06;;;;;;;4.97;4.47;;;13.90;99.90;;;;;;5071448;28;20447;-66
2022/05/23 02:40:33;;;;;;;5.47;4.70;;;13.90;99.90;;;;;;5070690;28;20451;-67
2022/05/23 02:43:00;;;;;;;6.43;4.67;;;13.90;99.90;;;;;;5071385;28;20465;-66
2022/05/23 02:45:27;;;;;;;4.83;4.33;;;14.00;99.90;;;;;;5071133;28;20436;-66
2022/05/23 02:47:53;;;;;;;4.97;4.10;;;14.00;99.90;;;;;;5071107;28;20439;-66
2022/05/23 02:50:22;;;;;;;5.33;4.67;;;14.10;99.90;;;;;;5070980;28;20482;-66
2022/05/23 02:52:50;;;;;;;4.97;4.47;;;14.10;99.90;;;;;;5071220;28;20436;-66
2022/05/23 02:55:17;;;;;;;6.93;4.50;;;14.10;99.90;;;;;;5071105;28;20439;-66
2022/05/23 02:57:44;;;;;;;4.50;4.10;;;14.00;99.90;;;;;;5071249;28;20447;-66
2022/05/23 03:00:12;;;;;;;5.77;4.50;;;14.00;99.90;;;;;;5071138;28;21024;-66
2022/05/23 03:05:23;;;;;;;6.10;4.73;;;14.30;99.90;;;;;;5071243;28;20418;-66
2022/05/23 03:07:51;;;;;;;5.10;4.70;;;14.40;99.90;;;;;;5071402;28;20830;-66
2022/05/23 03:10:18;;;;;;;5.70;5.03;;;14.30;99.90;;;;;;5070801;28;20846;-66
2022/05/23 03:12:45;;;;;;;4.93;4.43;;;14.30;99.90;;;;;;5070968;28;20945;-66
2022/05/23 03:15:13;;;;;;;5.00;4.50;;;14.30;99.90;;;;;;5071822;28;20447;-67
2022/05/23 03:17:40;;;;;;;6.10;4.37;;;14.30;99.90;;;;;;5071518;28;20872;-67
2022/05/23 03:20:08;;;;;;;6.60;4.53;;;14.20;99.90;;;;;;5070959;28;20463;-66
2022/05/23 03:28:06;;;;;;;4.77;4.30;;;14.50;99.90;;;;;;5070173;28;20465;-65
2022/05/23 03:30:33;;;;;;;8.60;5.07;;;14.50;99.90;;;;;;5069796;28;21286;-66
2022/05/23 03:33:00;;;;;;;5.93;5.30;;;14.60;99.90;;;;;;5070343;28;20449;-66
2022/05/23 03:35:29;;;;;;;5.30;4.30;;;14.60;99.90;;;;;;5070368;28;20442;-66
2022/05/23 03:37:56;;;;;;;5.30;4.37;;;14.60;99.90;;;;;;5070181;28;20453;-66
2022/05/23 03:40:24;;;;;;;5.23;4.73;;;14.60;99.90;;;;;;5069976;28;20455;-66
2022/05/23 03:42:51;;;;;;;5.20;4.60;;;14.60;99.90;;;;;;5070273;28;20439;-66
2022/05/23 03:45:18;;;;;;;8.93;4.73;;;14.60;99.90;;;;;;5070187;28;20447;-66
2022/05/23 03:47:46;;;;;;;5.73;4.70;;;14.60;99.90;;;;;;5070054;28;20823;-66
2022/05/23 03:50:13;;;;;;;5.53;4.13;;;14.70;99.90;;;;;;5069772;28;20674;-66
2022/05/23 03:52:40;;;;;;;5.60;4.13;;;14.70;99.90;;;;;;5070548;28;20435;-66
2022/05/23 03:55:07;;;;;;;5.00;4.47;;;14.70;99.90;;;;;;5069961;28;20450;-66
2022/05/23 03:57:35;;;;;;;4.37;3.97;;;14.80;99.90;;;;;;5074363;28;20439;-66
2022/05/23 04:00:03;;;;;;;7.70;3.90;;;15.00;99.90;;;;;;5073977;28;20455;-66
2022/05/23 04:02:29;;;;;;;5.63;3.60;;;15.00;99.90;;;;;;5074165;28;20446;-66
2022/05/23 04:04:56;;;;;;;4.30;3.90;;;14.90;99.90;;;;;;5073810;28;20809;-66
2022/05/23 04:07:23;;;;;;;6.50;4.47;;;14.80;99.90;;;;;;5073839;28;20443;-67
2022/05/23 04:09:50;;;;;;;5.10;4.60;;;14.90;99.90;;;;;;5073767;28;20570;-67
2022/05/23 04:12:17;;;;;;;5.20;4.70;;;15.00;99.90;;;;;;5073836;28;20686;-67
2022/05/23 04:14:45;;;;;;;7.83;4.50;;;15.10;99.90;;;;;;5073755;28;20443;-66
2022/05/23 04:17:12;;;;;;;6.77;4.50;;;15.20;99.90;;;;;;5073371;28;20818;-67
2022/05/23 04:19:39;;;;;;;7.67;5.00;;;15.10;99.90;;;;;;5072892;28;20459;-67
2022/05/23 04:22:06;;;;;;;7.30;4.70;;;15.30;99.90;;;;;;5072890;28;20438;-67
2022/05/23 04:24:32;;;;;;;4.50;3.90;;;15.50;99.90;;;;;;5073223;28;20450;-67
2022/05/23 04:27:00;;;;;;;5.60;3.90;;;15.70;99.90;;;;;;5073570;28;20475;-67
2022/05/23 04:29:26;;;;;;;6.17;3.63;;;15.80;99.90;;;;;;5073195;28;20478;-68
2022/05/23 04:31:55;;;;;;;4.10;3.70;;;15.80;99.90;;;;;;5072422;28;20445;-67
2022/05/23 04:37:06;;;;;;;6.63;4.13;;;15.70;99.90;;;;;;5072537;28;20415;-66
2022/05/23 04:39:33;;;;;;;5.13;4.13;;;15.60;99.90;;;;;;5072805;28;20451;-68
2022/05/23 04:42:01;;;;;;;6.33;4.83;;;15.40;99.90;;;;;;5072257;28;20465;-67
2022/05/23 04:44:28;;;;;;;7.70;4.80;;;15.30;99.90;;;;;;5072711;28;20446;-67
2022/05/23 04:49:41;;;;;;;5.90;4.80;;;14.90;99.90;;;;;;5072505;28;20979;-66
2022/05/23 04:52:08;;;;;;;7.23;5.03;;;14.80;99.90;;;;;;5072373;28;20648;-66
2022/05/23 04:54:35;;;;;;;6.47;5.80;;;14.80;99.90;;;;;;5072630;28;20437;-66
2022/05/23 04:57:02;;;;;;;10.37;6.00;;;14.70;99.90;;;;;;5072317;28;20493;-67
2022/05/23 04:59:29;;;;;;;9.10;6.30;;;14.70;99.90;;;;;;5072768;28;20465;-66
2022/05/23 05:01:57;;;;;;;7.33;6.63;;;14.70;99.90;;;;;;5070156;28;20933;-67
2022/05/23 05:04:24;;;;;;;10.97;6.47;;;14.60;99.90;;;;;;5072537;28;20805;-67
2022/05/23 05:06:51;;;;;;;8.00;6.20;;;14.70;99.90;;;;;;5072985;28;20439;-68
2022/05/23 05:09:18;;;;;;;6.97;6.27;;;14.80;99.90;;;;;;5072278;28;20474;-68
2022/05/23 05:11:44;;;;;;;11.20;7.37;;;14.90;99.90;;;;;;5072246;28;20435;-67
2022/05/23 05:14:11;;;;;;;7.77;6.13;;;14.90;99.90;;;;;;5072165;28;20439;-67
2022/05/23 05:16:38;;;;;;;8.70;7.77;;;14.80;99.90;;;;;;5072529;28;20443;-67
2022/05/23 05:19:06;;;;;;;7.87;6.43;;;14.90;99.90;;;;;;5071834;28;20463;-67
2022/05/23 05:21:33;;;;;;;10.20;7.60;;;15.00;99.90;;;;;;5071830;28;20443;-67
2022/05/23 05:24:00;;;;;;;8.20;7.23;;;15.00;99.90;;;;;;5071660;28;20478;-66
2022/05/23 05:26:29;;;;;;;9.40;7.33;;;15.00;99.90;;;;;;5071381;28;20451;-67
2022/05/23 05:28:55;;;;;;;8.83;7.10;;;15.00;99.90;;;;;;5071272;28;20468;-67
2022/05/23 05:31:25;;;;;;;8.00;7.00;;;15.20;99.90;;;;;;5071507;28;20483;-67
2022/05/23 05:33:56;;;;;;;9.23;7.00;;;15.30;99.90;;;;;;5071990;28;20439;-68
2022/05/23 05:36:28;;;;;;;7.10;6.40;;;15.30;99.90;;;;;;5071629;28;21024;-67
2022/05/23 05:39:01;;;;;;;9.10;6.90;;;15.30;99.90;;;;;;5071906;28;20828;-67
2022/05/23 05:41:31;;;;;;;7.60;6.50;;;15.30;99.90;;;;;;5071592;28;20449;-67
2022/05/23 05:44:03;;;;;;;9.10;6.40;;;15.30;99.90;;;;;;5071847;28;20446;-67
2022/05/23 05:46:35;;;;;;;7.30;6.50;;;15.20;99.90;;;;;;5071596;28;20478;-67
2022/05/23 05:49:05;;;;;;;7.13;6.33;;;15.20;99.90;;;;;;5071263;28;20469;-66
2022/05/23 05:51:36;;;;;;;8.60;7.13;;;15.20;99.90;;;;;;5070798;28;20514;-67
2022/05/23 05:54:04;;;;;;;7.67;6.90;;;15.30;99.90;;;;;;5071502;28;20542;-67
2022/05/23 05:56:31;;;;;;;7.43;6.70;;;15.40;99.90;;;;;;5071538;28;20595;-67
2022/05/23 05:58:58;;;;;;;7.40;6.53;;;15.60;99.90;;;;;;5071416;28;20474;-67
2022/05/23 06:01:25;;;;;;;11.20;6.97;;;15.60;99.90;;;;;;5070823;28;20826;-67
2022/05/23 06:03:52;;;;;;;6.83;6.13;;;15.70;99.90;;;;;;5071550;28;20458;-67
2022/05/23 06:11:49;;;;;;;8.33;6.00;;;16.00;99.90;;;;;;5070332;28;20507;-67
2022/05/23 06:14:16;;;;;;;8.17;6.63;;;16.20;99.90;;;;;;5067240;28;20586;-67
2022/05/23 06:16:43;;;;;;;8.03;5.70;;;16.40;99.90;;;;;;5064620;28;20455;-67
2022/05/23 06:19:09;;;;;;;5.50;5.00;;;16.60;99.90;;;;;;5061794;28;20574;-67
2022/05/23 06:21:36;;;;;;;6.03;5.10;;;16.80;99.90;;;;;;5063835;28;20481;-67
2022/05/23 06:24:05;;;;;;;7.90;5.80;;;17.00;99.90;;;;;;5062716;28;20836;-67
2022/05/23 06:26:32;;;;;;;7.07;5.70;;;17.20;99.90;;;;;;5069090;28;20453;-62
2022/05/23 06:28:59;;;;;;;6.90;4.70;;;17.50;99.90;;;;;;5070686;28;20546;-65
2022/05/23 06:31:25;;;;;;;8.30;5.47;;;17.70;99.90;;;;;;5064185;28;20566;-65
2022/05/23 06:33:52;;;;;;;5.57;5.03;;;17.90;99.90;;;;;;5064746;28;21298;-65
2022/05/23 06:36:19;;;;;;;6.67;5.33;;;18.00;99.90;;;;;;5065327;28;20443;-65
2022/05/23 06:38:47;;;;;;;4.87;4.37;;;18.00;99.90;;;;;;5058941;28;20451;-64
2022/05/23 06:41:15;;;;;;;6.13;4.87;;;18.10;99.90;;;;;;5065576;28;20447;-65
2022/05/23 06:43:44;;;;;;;4.27;3.87;;;18.20;99.90;;;;;;5060851;28;20447;-66
2022/05/23 06:46:13;;;;;;;4.23;3.60;;;18.40;99.90;;;;;;5058384;28;20455;-65
2022/05/23 06:48:40;;;;;;;5.50;3.93;;;18.60;99.90;;;;;;5064407;28;20462;-65
2022/05/23 06:51:08;;;;;;;7.20;3.80;;;18.70;99.90;;;;;;5069533;28;20475;-66
2022/05/23 06:53:34;;;;;;;8.10;4.33;;;18.70;99.90;;;;;;5069821;28;20442;-65
2022/05/23 06:56:02;;;;;;;5.63;3.10;;;18.60;99.90;;;;;;5068796;28;20453;-65
2022/05/23 06:58:30;;;;;;;5.30;4.23;;;18.40;99.90;;;;;;5070464;28;20451;-65
2022/05/23 07:00:57;;;;;;;4.57;4.10;;;18.50;99.90;;;;;;5069879;28;20457;-65
2022/05/23 07:03:24;;;;;;;5.43;4.40;;;18.60;99.90;;;;;;5070322;28;20447;-65
2022/05/23 07:14:06;;;;;;;8.70;4.03;;;19.20;99.90;;;;;;5070288;28;20419;-65
2022/05/23 07:16:35;;;;;;;7.00;4.00;;;19.50;99.90;;;;;;5070116;28;20953;-65
2022/05/23 07:19:04;;;;;;;5.70;4.30;;;19.70;99.90;;;;;;5070305;28;20554;-63
2022/05/23 07:21:31;;;;;;;5.67;4.20;;;19.90;99.90;;;;;;5069949;28;20538;-63
2022/05/23 07:23:59;;;;;;;8.27;3.87;;;20.10;99.90;;;;;;5070221;28;20473;-65
2022/05/23 07:26:26;;;;;;;5.77;4.23;;;20.10;99.90;;;;;;5070054;28;21036;-66
2022/05/23 07:28:53;;;;;;;7.77;4.10;;;20.30;99.90;;;;;;5070079;28;20470;-65
2022/05/23 07:31:22;;;;;;;4.80;3.70;;;20.50;99.90;;;;;;5068754;28;20855;-66
2022/05/23 07:33:49;;;;;;;5.20;3.93;;;20.80;99.90;;;;;;5070005;28;20948;-65
2022/05/23 07:36:16;;;;;;;5.47;4.27;;;20.80;99.90;;;;;;5069918;28;20447;-65
2022/05/23 07:38:43;;;;;;;4.33;3.53;;;20.90;99.90;;;;;;5070032;28;20455;-65
2022/05/23 07:41:11;;;;;;;4.33;3.93;;;21.00;99.90;;;;;;5069553;28;20822;-65
2022/05/23 07:43:41;;;;;;;6.20;3.27;;;21.00;99.90;;;;;;5068234;28;20452;-65
2022/05/23 07:46:12;;;;;;;5.00;3.73;;;21.30;99.90;;;;;;5061558;28;20644;-64
2022/05/23 07:48:42;;;;;;;4.70;3.30;;;21.30;99.90;;;;;;5059275;28;20459;-65
2022/05/23 07:51:11;;;;;;;5.93;3.90;;;21.40;99.90;;;;;;5064383;28;21010;-65
2022/05/23 08:01:51;;;;;;;5.82;3.97;;;22.40;99.90;;;;;;5062190;28;20519;-64
2022/05/23 08:04:20;;;;;;;8.77;4.30;;;22.30;99.90;;;;;;5068993;28;20830;-64
2022/05/23 08:06:48;;;;;;;4.67;4.10;;;22.10;99.90;;;;;;5064585;28;20439;-64
2022/05/23 08:09:17;;;;;;;9.20;4.53;;;22.10;99.90;;;;;;5074900;28;20463;-67
2022/05/23 08:11:45;;;;;;;5.47;4.77;;;22.40;99.90;;;;;;5067083;28;20513;-64
2022/05/23 08:14:13;;;;;;;6.87;4.30;;;22.80;99.90;;;;;;5068780;28;20455;-65
2022/05/23 08:16:40;;;;;;;6.40;5.10;;;23.00;99.90;;;;;;5064223;28;20467;-64
2022/05/23 08:19:07;;;;;;;5.33;3.90;;;23.20;99.90;;;;;;5065508;28;20997;-65
2022/05/23 08:21:39;;;;;;;7.20;4.73;;;23.40;99.90;;;;;;5063853;28;20471;-64
2022/05/23 08:24:07;;;;;;;5.40;4.80;;;23.40;99.90;;;;;;5065484;28;20466;-64
2022/05/23 08:26:34;;;;;;;4.80;4.10;;;23.30;99.90;;;;;;5063739;28;20449;-65
2022/05/23 08:29:02;;;;;;;5.63;4.10;;;23.30;99.90;;;;;;5066718;28;20471;-64
2022/05/23 08:31:29;;;;;;;6.03;4.37;;;23.20;99.90;;;;;;5069113;28;20532;-64
2022/05/23 08:33:55;;;;;;;9.40;4.33;;;23.30;99.90;;;;;;5069319;28;20983;-65
2022/05/23 08:36:22;;;;;;;6.73;4.50;;;23.30;99.90;;;;;;5069165;28;20826;-65
2022/05/23 08:38:50;;;;;;;5.60;4.10;;;23.20;99.90;;;;;;5069644;28;20465;-65
2022/05/23 08:41:22;;;;;;;5.60;4.70;;;23.10;99.90;;;;;;5066511;28;20474;-65
2022/05/23 08:43:53;;;;;;;10.90;4.40;;;23.40;99.90;;;;;;5072473;28;20527;-65
2022/05/23 08:46:27;;;;;;;4.03;3.63;;;23.30;99.90;;;;;;5071585;28;21097;-65
2022/05/23 08:49:02;;;;;;;4.70;3.80;;;23.40;99.90;;;;;;5072582;28;20478;-66
2022/05/23 08:51:37;;;;;;;6.80;4.60;;;23.60;99.90;;;;;;5070329;28;20478;-65
2022/05/23 08:54:16;;;;;;;5.60;4.13;;;23.40;99.90;;;;;;5072533;28;20451;-66
2022/05/23 08:56:48;;;;;;;5.80;3.40;;;23.20;99.90;;;;;;5072107;28;20519;-65
2022/05/23 08:59:21;;;;;;;4.33;3.93;;;23.20;99.90;;;;;;5072586;28;20455;-65
2022/05/23 09:01:52;;;;;;;4.20;3.60;;;23.10;99.90;;;;;;5067830;28;20454;-65
2022/05/23 09:04:32;;;;;;;5.80;3.90;;;23.00;99.90;;;;;;5055082;28;20459;-65
2022/05/23 09:07:01;;;;;;;6.70;3.93;;;23.10;99.90;;;;;;5072276;28;20529;-64
2022/05/23 09:09:31;;;;;;;8.57;3.80;;;22.90;99.90;;;;;;5072708;28;20478;-65
2022/05/23 09:12:04;;;;;;;7.60;3.90;;;22.80;99.90;;;;;;5072005;28;20523;-65
2022/05/23 09:14:30;;;;;;;5.20;3.43;;;22.60;99.90;;;;;;5072359;28;20941;-65
2022/05/23 09:16:58;;;;;;;5.70;4.13;;;22.70;99.90;;;;;;5072320;28;20554;-65
2022/05/23 09:19:33;;;;;;;5.60;3.30;;;22.90;99.90;;;;;;5072167;28;20471;-65
2022/05/23 09:22:15;;;;;;;4.10;3.63;;;23.00;99.90;;;;;;5062749;28;20451;-65
2022/05/23 09:24:47;;;;;;;4.23;3.40;;;23.00;99.90;;;;;;5051858;28;20549;-64
2022/05/23 09:27:20;;;;;;;5.33;4.13;;;23.20;99.90;;;;;;5052246;28;20444;-65
2022/05/23 09:29:52;;;;;;;9.93;3.77;;;23.20;99.90;;;;;;5051437;28;20467;-64
2022/05/23 09:32:23;;;;;;;4.80;4.07;;;23.30;99.90;;;;;;5052163;28;20863;-65
2022/05/23 09:34:54;;;;;;;4.77;4.13;;;23.30;99.90;;;;;;5062124;28;20886;-66
2022/05/23 09:37:24;;;;;;;5.30;4.13;;;23.20;99.90;;;;;;5069143;28;20436;-66
2022/05/23 09:39:55;;;;;;;5.00;3.97;;;23.30;99.90;;;;;;5071363;28;20477;-66
2022/05/23 09:48:14;;;;;;;5.23;3.80;;;24.10;99.90;;;;;;5069822;28;20426;-65
2022/05/23 09:50:43;;;;;;;4.60;3.60;;;24.50;99.90;;;;;;5065966;28;20683;-66
2022/05/23 09:53:25;;;;;;;5.27;3.40;;;25.10;99.90;;;;;;5066508;28;20450;-66
2022/05/23 09:55:53;;;;;;;5.33;4.23;;;25.80;99.90;;;;;;5067542;28;20439;-66
2022/05/23 09:58:27;;;;;;;4.53;3.83;;;25.90;99.90;;;;;;5068433;28;20435;-66
2022/05/23 10:01:01;;;;;;;5.93;3.67;;;26.20;99.90;;;;;;5071486;28;20976;-66
2022/05/23 10:03:29;;;;;;;6.73;4.07;;;26.30;99.90;;;;;;5071099;28;20500;-66
2022/05/23 10:06:08;;;;;;;4.80;4.40;;;26.50;99.90;;;;;;5068741;28;20455;-66
2022/05/23 10:08:37;;;;;;;4.83;4.03;;;26.90;99.90;;;;;;5068848;28;20439;-66
2022/05/23 10:11:08;;;;;;;7.20;4.97;;;27.20;99.90;;;;;;5070518;28;20475;-66
2022/05/23 10:13:37;;;;;;;5.37;4.30;;;27.70;99.90;;;;;;5067433;28;20531;-66
2022/05/23 10:16:13;;;;;;;6.67;3.77;;;28.00;99.90;;;;;;5070675;28;20451;-66
2022/05/23 10:18:48;;;;;;;5.90;3.70;;;27.90;99.90;;;;;;5071258;28;20443;-66
2022/05/23 10:21:25;;;;;;;5.57;4.20;;;27.40;99.90;;;;;;5067507;28;20442;-66
2022/05/23 10:24:07;;;;;;;7.10;5.17;;;26.70;99.90;;;;;;5065013;28;20921;-66
2022/05/23 10:26:43;;;;;;;6.60;4.10;;;26.40;99.90;;;;;;5067081;28;20958;-66
2022/05/23 10:29:20;;;;;;;5.33;4.00;;;26.30;99.90;;;;;;5070141;28;20462;-66
2022/05/23 10:31:52;;;;;;;6.93;4.37;;;26.40;99.90;;;;;;5069403;28;21032;-66
2022/05/23 10:34:32;;;;;;;9.93;3.10;;;26.20;99.90;;;;;;5070247;28;20454;-65
2022/05/23 10:37:00;;;;;;;4.70;4.03;;;26.10;99.90;;;;;;5071121;28;20886;-66
2022/05/23 10:42:22;;;;;;;5.40;4.00;;;25.70;99.90;;;;;;5069245;28;20430;-66
2022/05/23 10:45:14;;;;;;;4.20;3.13;;;25.70;99.90;;;;;;5069869;28;20451;-66
2022/05/23 10:47:59;;;;;;;5.57;3.73;;;25.90;99.90;;;;;;5066356;28;21028;-66
2022/05/23 10:50:30;;;;;;;6.10;4.50;;;26.00;99.90;;;;;;5067163;28;20494;-66
2022/05/23 10:53:07;;;;;;;4.10;3.47;;;25.80;99.90;;;;;;5069357;28;20582;-66
2022/05/23 10:55:39;;;;;;;4.63;3.60;;;25.60;99.90;;;;;;5069667;28;20442;-66
2022/05/23 10:58:15;;;;;;;4.10;3.70;;;25.70;99.90;;;;;;5070526;28;20458;-66
2022/05/23 11:00:52;;;;;;;5.20;4.20;;;25.80;99.90;;;;;;5069855;28;20470;-64
2022/05/23 11:03:29;;;;;;;8.70;4.33;;;25.80;99.90;;;;;;5070299;28;20435;-66
2022/05/23 11:06:03;;;;;;;6.00;4.00;;;25.80;99.90;;;;;;5070226;28;20453;-66
2022/05/23 11:08:47;;;;;;;9.67;4.00;;;25.80;99.90;;;;;;5062277;28;21195;-66
2022/05/23 11:11:21;;;;;;;5.03;3.60;;;25.60;99.90;;;;;;5069272;28;20542;-66
2022/05/23 11:14:00;;;;;;;4.53;3.97;;;25.30;99.90;;;;;;5065181;28;20445;-66
2022/05/23 11:16:37;;;;;;;4.30;3.80;;;24.90;99.90;;;;;;5069202;28;20519;-65
2022/05/23 11:19:21;;;;;;;7.80;4.97;;;24.40;99.90;;;;;;5070014;28;20463;-65
2022/05/23 11:21:58;;;;;;;12.00;5.43;;;23.40;99.90;;;;;;5069010;28;20450;-65
2022/05/23 11:24:28;;;;;;;9.20;4.90;;;22.40;99.90;;;;;;5068211;28;20459;-65
2022/05/23 11:33:41;;;;;;;7.87;5.73;;;21.70;99.90;;;;;;5070258;28;20450;-65
2022/05/23 11:35:23;;;;;;;6.67;6.03;;;20.30;99.90;;;;;;5063370;28;20987;-65
2022/05/23 11:37:50;;;;;;;9.23;6.80;;;19.90;99.90;;;;;;5068762;28;20449;-66
2022/05/23 11:40:52;;;;;;;8.03;6.20;;;19.70;99.90;;;;;;5068692;28;20469;-65
2022/05/23 11:43:21;;;;;;;8.90;8.10;;;19.60;99.90;;;;;;5065956;28;20435;-66
2022/05/23 11:45:59;;;;;;;8.77;7.00;;;19.50;99.90;;;;;;5063915;28;21072;-65
2022/05/23 11:48:54;;;;;;;10.90;7.80;;;19.40;99.90;;;;;;5062177;28;20953;-65
2022/05/23 11:51:36;;;;;;;7.87;7.07;;;19.30;99.90;;;;;;5066991;28;20445;-65
2022/05/23 11:54:08;;;;;;;12.80;6.93;;;19.30;99.90;;;;;;5068455;28;20494;-65
2022/05/23 11:56:48;;;;;;;6.20;5.60;;;19.10;99.90;;;;;;5069338;28;20450;-65
2022/05/23 11:59:49;;;;;;;8.73;6.40;;;18.90;99.90;;;;;;5067434;28;20477;-66
2022/05/23 12:02:25;;;;;;;9.20;6.80;;;18.70;99.90;;;;;;5062699;28;20459;-65
2022/05/23 12:05:14;;;;;;;10.13;6.60;;;18.60;99.90;;;;;;5069105;28;20443;-65
2022/05/23 12:08:05;;;;;;;6.47;5.77;;;18.50;99.90;;;;;;5065847;28;20458;-65
2022/05/23 12:10:52;;;;;;;12.03;6.73;;;18.40;99.90;;;;;;5055999;28;20459;-65
2022/05/23 12:13:51;;;;;;;6.80;5.30;;;18.40;99.90;;;;;;5069482;28;20851;-65
2022/05/23 12:16:41;;;;;;;10.73;7.80;;;18.40;99.90;;;;;;5053987;28;21003;-66
2022/05/23 12:19:31;;;;;;;11.73;7.53;;;18.40;99.90;;;;;;5073081;28;20885;-66
2022/05/23 12:22:19;;;;;;;10.00;6.23;;;18.40;99.90;;;;;;5071379;28;20446;-65
2022/05/23 12:25:24;;;;;;;10.47;7.07;;;18.40;99.90;;;;;;5073033;28;20435;-66
2022/05/23 12:28:14;;;;;;;8.43;5.23;;;18.30;99.90;;;;;;5073062;28;20978;-65
2022/05/23 12:30:59;;;;;;;6.33;4.63;;;18.10;99.90;;;;;;5072109;28;20470;-65
2022/05/23 12:33:26;;;;;;;7.50;5.37;;;17.90;99.90;;;;;;5065316;28;20509;-65
2022/05/23 12:35:58;;;;;;;8.27;6.40;;;17.90;99.90;;;;;;5068157;28;20465;-67
2022/05/23 12:39:08;;;;;;;8.00;6.70;;;17.90;99.90;;;;;;5068603;28;20447;-66
2022/05/23 12:41:53;;;;;;;6.50;4.70;;;18.00;99.90;;;;;;5069191;28;20450;-65
2022/05/23 12:45:01;;;;;;;5.10;4.60;;;18.00;99.90;;;;;;5070450;28;20461;-65
2022/05/23 12:48:00;;;;;;;8.33;5.30;;;18.00;99.90;;;;;;5067933;28;20443;-66
2022/05/23 12:50:41;;;;;;;5.13;4.60;;;18.30;99.90;;;;;;5066814;28;20513;-66
2022/05/23 12:53:34;;;;;;;7.47;4.77;;;18.50;99.90;;;;;;5072278;28;20481;-65
2022/05/23 12:56:27;;;;;;;6.20;5.30;;;18.50;99.90;;;;;;5072966;28;20802;-66
2022/05/23 12:59:34;;;;;;;7.07;4.60;;;18.80;99.90;;;;;;5067678;28;20485;-66
2022/05/23 13:02:08;;;;;;;7.93;5.10;;;18.90;99.90;;;;;;5070697;28;20462;-66
2022/05/23 13:04:45;;;;;;;6.60;4.50;;;19.10;99.90;;;;;;5069638;28;20531;-66
2022/05/23 13:07:18;;;;;;;6.77;3.80;;;19.50;99.90;;;;;;5068729;28;21070;-66
2022/05/23 13:09:50;;;;;;;7.00;3.63;;;20.00;99.90;;;;;;5063301;28;20470;-65
2022/05/23 13:12:23;;;;;;;9.20;3.27;;;20.30;99.90;;;;;;5072858;28;20559;-65
2022/05/23 13:14:53;;;;;;;5.47;3.00;;;20.60;99.90;;;;;;5072740;28;20458;-65
2022/05/23 13:17:38;;;;;;;5.57;2.93;;;21.10;99.90;;;;;;5070590;28;20455;-65
2022/05/23 13:23:02;;;;;;;5.63;3.20;;;22.30;99.90;;;;;;5071277;28;20561;-64
2022/05/23 13:25:32;;;;;;;7.07;3.27;;;22.60;99.90;;;;;;5071361;28;20439;-66
2022/05/23 13:28:00;;;;;;;5.53;3.67;;;22.90;99.90;;;;;;5068776;28;20466;-66
2022/05/23 13:30:31;;;;;;;4.90;3.73;;;23.10;99.90;;;;;;5068964;28;20459;-66
2022/05/23 13:33:03;;;;;;;5.20;3.27;;;23.30;99.90;;;;;;5066378;28;20483;-66
2022/05/23 13:35:30;;;;;;;7.87;3.50;;;23.40;99.90;;;;;;5073195;28;20514;-66
2022/05/23 13:38:11;;;;;;;8.70;3.80;;;23.90;99.90;;;;;;5071559;28;20489;-66
2022/05/23 13:40:44;;;;;;;8.20;3.37;;;24.70;99.90;;;;;;5068267;28;20479;-66
2022/05/23 13:43:11;;;;;;;5.27;3.10;;;26.10;99.90;;;;;;5070307;28;20441;-65
2022/05/23 13:45:39;;;;;;;5.77;3.10;;;27.40;99.90;;;;;;5070380;28;20487;-66
2022/05/23 13:48:13;;;;;;;6.03;2.90;;;28.70;99.90;;;;;;5070389;28;20539;-66
2022/05/23 13:50:44;;;;;;;5.70;3.03;;;29.70;99.90;;;;;;5070293;28;20849;-66
2022/05/23 13:53:15;;;;;;;9.47;3.10;;;30.00;99.90;;;;;;5067290;28;21043;-66
2022/05/23 13:55:48;;;;;;;5.33;2.93;;;29.90;99.90;;;;;;5070496;28;20435;-66
2022/05/23 13:58:18;;;;;;;6.30;2.47;;;30.80;99.90;;;;;;5067887;28;20531;-67
2022/05/23 14:00:52;;;;;;;6.40;2.40;;;31.00;99.90;;;;;;5070329;28;20848;-66
2022/05/23 14:03:23;;;;;;;5.90;2.37;;;31.40;99.90;;;;;;5068021;28;20445;-66
2022/05/23 14:05:53;;;;;;;7.10;4.00;;;31.70;98.90;;;;;;5068373;28;20988;-66
2022/05/23 14:08:24;;;;;;;6.77;2.47;;;31.60;99.20;;;;;;5071351;28;20454;-66